createdAt,value
2018-05-27T00:00:23.531Z,72.93
2018-05-27T00:02:50.978Z,73.44
2018-05-27T00:05:18.402Z,73.46
2018-05-27T00:07:45.855Z,73.77
2018-05-27T00:10:13.270Z,73.91
2018-05-27T00:12:40.725Z,73.77
2018-05-27T00:15:08.147Z,73.33
2018-05-27T00:17:35.601Z,73.47
2018-05-27T00:20:04.018Z,73.16
2018-05-27T00:22:31.475Z,73.84
2018-05-27T00:24:58.893Z,74.92
2018-05-27T00:27:26.354Z,75.00
2018-05-27T00:29:53.791Z,74.89
2018-05-27T00:32:21.253Z,76.11
2018-05-27T00:34:48.686Z,75.66
2018-05-27T00:37:16.117Z,75.43
2018-05-27T00:39:43.562Z,75.96
2018-05-27T00:42:11.012Z,76.38
2018-05-27T00:44:38.458Z,77.20
2018-05-27T00:47:05.882Z,77.07
2018-05-27T00:49:33.324Z,78.20
2018-05-27T00:52:00.753Z,78.23
2018-05-27T00:54:28.239Z,78.10
2018-05-27T00:56:55.670Z,78.03
2018-05-27T00:59:23.114Z,77.83
2018-05-27T01:01:50.537Z,77.61
2018-05-27T01:04:17.989Z,77.62
2018-05-27T01:06:45.405Z,77.18
2018-05-27T01:09:12.866Z,77.60
2018-05-27T01:11:40.290Z,77.41
2018-05-27T01:14:07.785Z,77.42
2018-05-27T01:16:35.205Z,76.87
2018-05-27T01:19:03.594Z,77.03
2018-05-27T01:21:31.049Z,76.86
2018-05-27T01:23:58.473Z,77.10
2018-05-27T01:26:25.917Z,77.34
2018-05-27T01:28:53.337Z,77.79
2018-05-27T01:31:20.794Z,77.81
2018-05-27T01:33:48.217Z,78.07
2018-05-27T01:36:15.660Z,78.51
2018-05-27T01:38:43.088Z,79.04
2018-05-27T01:41:10.533Z,79.13
2018-05-27T01:43:37.952Z,78.73
2018-05-27T01:46:05.414Z,78.04
2018-05-27T01:48:32.830Z,77.71
2018-05-27T01:51:00.249Z,78.00
2018-05-27T01:53:27.702Z,78.41
2018-05-27T01:55:56.062Z,78.21
2018-05-27T01:58:23.506Z,77.65
2018-05-27T02:00:51.249Z,77.70
2018-05-27T02:03:19.608Z,77.49
2018-05-27T02:05:47.037Z,77.30
2018-05-27T02:08:14.494Z,78.39
2018-05-27T02:10:42.819Z,78.76
2018-05-27T02:13:10.270Z,78.16
2018-05-27T02:15:37.693Z,77.53
2018-05-27T02:18:05.150Z,77.44
2018-05-27T02:20:32.570Z,78.27
2018-05-27T02:23:00.026Z,78.52
2018-05-27T02:25:27.459Z,77.32
2018-05-27T02:27:54.882Z,77.97
2018-05-27T02:30:22.330Z,77.44
2018-05-27T02:32:49.750Z,78.21
2018-05-27T02:35:17.205Z,77.77
2018-05-27T02:37:44.636Z,78.11
2018-05-27T02:40:12.086Z,78.69
2018-05-27T02:42:39.498Z,79.57
2018-05-27T02:45:06.955Z,79.46
2018-05-27T02:47:34.374Z,79.64
2018-05-27T02:50:01.846Z,80.26
2018-05-27T02:52:29.270Z,80.33
2018-05-27T02:54:56.719Z,80.25
2018-05-27T02:57:24.138Z,80.53
2018-05-27T02:59:51.593Z,79.96
2018-05-27T03:02:19.021Z,80.29
2018-05-27T03:04:46.486Z,80.06
2018-05-27T03:07:13.921Z,79.04
2018-05-27T03:09:41.370Z,78.41
2018-05-27T03:12:08.795Z,77.92
2018-05-27T03:14:36.214Z,77.51
2018-05-27T03:17:03.662Z,76.98
2018-05-27T03:19:31.081Z,76.82
2018-05-27T03:21:58.538Z,77.42
2018-05-27T03:24:26.959Z,77.25
2018-05-27T03:26:54.418Z,77.20
2018-05-27T03:29:21.841Z,76.61
2018-05-27T03:31:49.298Z,77.85
2018-05-27T03:34:16.725Z,77.39
2018-05-27T03:36:44.174Z,77.71
2018-05-27T03:39:11.598Z,78.28
2018-05-27T03:41:39.041Z,78.44
2018-05-27T03:44:06.469Z,77.22
2018-05-27T03:46:33.934Z,77.12
2018-05-27T03:49:01.361Z,76.31
2018-05-27T03:51:28.787Z,76.08
2018-05-27T03:53:56.251Z,76.38
2018-05-27T03:56:23.677Z,77.28
2018-05-27T03:58:52.088Z,76.69
2018-05-27T04:01:19.517Z,77.05
2018-05-27T04:06:55.511Z,76.57
2018-05-27T04:09:22.965Z,76.50
2018-05-27T04:11:50.378Z,75.76
2018-05-27T04:14:17.834Z,75.95
2018-05-27T04:16:45.262Z,75.85
2018-05-27T04:19:12.710Z,75.43
2018-05-27T04:21:40.133Z,75.55
2018-05-27T04:24:07.593Z,75.07
2018-05-27T04:26:35.012Z,75.00
2018-05-27T04:29:02.455Z,75.55
2018-05-27T04:31:29.875Z,76.83
2018-05-27T04:33:57.322Z,77.10
2018-05-27T04:36:26.761Z,77.56
2018-05-27T04:38:54.193Z,76.62
2018-05-27T04:41:21.624Z,76.82
2018-05-27T04:43:49.046Z,77.25
2018-05-27T04:46:16.489Z,76.52
2018-05-27T04:48:43.907Z,76.84
2018-05-27T04:51:11.369Z,76.00
2018-05-27T04:53:38.782Z,75.99
2018-05-27T04:56:06.229Z,76.67
2018-05-27T04:58:33.649Z,75.84
2018-05-27T05:01:01.113Z,75.29
2018-05-27T05:03:28.549Z,75.54
2018-05-27T05:05:56.016Z,76.34
2018-05-27T05:08:23.876Z,75.69
2018-05-27T05:10:51.313Z,74.63
2018-05-27T05:13:18.740Z,74.12
2018-05-27T05:15:46.178Z,72.73
2018-05-27T05:18:14.062Z,72.33
2018-05-27T05:20:41.481Z,72.17
2018-05-27T05:23:08.929Z,72.42
2018-05-27T05:25:37.296Z,72.00
2018-05-27T05:28:04.741Z,71.41
2018-05-27T05:30:32.178Z,71.89
2018-05-27T05:32:59.622Z,71.07
2018-05-27T05:35:27.693Z,70.93
2018-05-27T05:37:55.133Z,71.50
2018-05-27T05:40:22.560Z,70.74
2018-05-27T05:42:50.025Z,71.46
2018-05-27T05:45:17.441Z,70.76
2018-05-27T05:47:45.860Z,69.80
2018-05-27T05:50:13.289Z,69.95
2018-05-27T05:52:40.733Z,69.76
2018-05-27T05:55:08.150Z,69.50
2018-05-27T05:57:36.602Z,69.30
2018-05-27T06:00:04.126Z,68.66
2018-05-27T06:02:31.601Z,68.15
2018-05-27T06:04:59.021Z,66.20
2018-05-27T06:07:26.459Z,66.98
2018-05-27T06:09:53.907Z,67.96
2018-05-27T06:12:21.339Z,67.90
2018-05-27T06:14:48.792Z,68.19
2018-05-27T06:17:17.162Z,67.89
2018-05-27T06:19:44.608Z,69.15
2018-05-27T06:22:12.044Z,69.73
2018-05-27T06:24:39.489Z,69.00
2018-05-27T06:27:06.937Z,69.47
2018-05-27T06:29:34.392Z,69.68
2018-05-27T06:32:01.819Z,70.82
2018-05-27T06:34:29.267Z,70.20
2018-05-27T06:36:56.685Z,68.68
2018-05-27T06:39:24.126Z,67.42
2018-05-27T06:41:52.442Z,69.52
2018-05-27T06:44:19.889Z,68.88
2018-05-27T06:46:47.314Z,69.05
2018-05-27T06:49:14.773Z,69.75
2018-05-27T06:51:43.101Z,70.27
2018-05-27T06:54:11.490Z,70.03
2018-05-27T06:56:38.906Z,69.19
2018-05-27T06:59:06.378Z,69.58
2018-05-27T07:01:33.801Z,69.14
2018-05-27T07:04:01.222Z,68.15
2018-05-27T07:06:28.674Z,68.61
2018-05-27T07:08:56.115Z,68.51
2018-05-27T07:11:23.565Z,66.52
2018-05-27T07:13:50.985Z,67.76
2018-05-27T07:16:18.438Z,67.31
2018-05-27T07:18:46.845Z,67.40
2018-05-27T07:21:14.291Z,66.37
2018-05-27T07:23:41.717Z,66.52
2018-05-27T07:26:09.159Z,66.14
2018-05-27T07:28:36.578Z,67.60
2018-05-27T07:31:04.026Z,68.33
2018-05-27T07:33:31.445Z,67.96
2018-05-27T07:35:58.886Z,69.52
2018-05-27T07:38:26.305Z,68.15
2018-05-27T07:40:53.749Z,68.21
2018-05-27T07:43:21.174Z,68.23
2018-05-27T07:45:48.639Z,68.11
2018-05-27T07:48:16.066Z,67.88
2018-05-27T07:50:43.493Z,68.45
2018-05-27T07:53:10.944Z,67.60
2018-05-27T07:55:38.357Z,67.17
2018-05-27T07:58:05.797Z,66.12
2018-05-27T08:00:33.678Z,66.46
2018-05-27T08:03:01.117Z,67.55
2018-05-27T08:05:28.538Z,67.88
2018-05-27T08:07:56.774Z,66.18
2018-05-27T08:10:24.185Z,66.47
2018-05-27T08:12:51.625Z,67.08
2018-05-27T08:15:19.058Z,67.19
2018-05-27T08:17:46.506Z,66.37
2018-05-27T08:20:13.949Z,66.19
2018-05-27T08:22:41.386Z,66.76
2018-05-27T08:25:09.777Z,65.11
2018-05-27T08:27:37.174Z,62.78
2018-05-27T08:30:04.586Z,61.98
2018-05-27T08:32:32.084Z,62.35
2018-05-27T08:34:59.537Z,65.12
2018-05-27T08:37:26.929Z,65.44
2018-05-27T08:39:54.369Z,67.72
2018-05-27T08:42:21.787Z,65.97
2018-05-27T08:44:49.241Z,65.52
2018-05-27T08:47:16.653Z,66.45
2018-05-27T08:49:46.046Z,64.73
2018-05-27T08:52:13.469Z,63.74
2018-05-27T08:54:40.911Z,65.10
2018-05-27T08:57:13.162Z,64.73
2018-05-27T08:59:40.613Z,62.77
2018-05-27T09:02:08.021Z,62.22
2018-05-27T09:04:36.416Z,63.16
2018-05-27T09:07:03.844Z,63.24
2018-05-27T09:09:32.256Z,62.15
2018-05-27T09:11:59.689Z,63.09
2018-05-27T09:14:27.134Z,63.14
2018-05-27T09:16:55.536Z,63.07
2018-05-27T09:19:22.973Z,62.10
2018-05-27T09:21:50.387Z,63.48
2018-05-27T09:24:18.829Z,61.73
2018-05-27T09:26:46.260Z,62.17
2018-05-27T09:29:13.710Z,61.01
2018-05-27T09:31:44.356Z,59.72
2018-05-27T09:34:12.754Z,60.00
2018-05-27T09:36:40.187Z,59.37
2018-05-27T09:39:07.649Z,59.16
2018-05-27T09:41:35.046Z,59.00
2018-05-27T09:44:02.486Z,61.48
2018-05-27T09:46:29.946Z,62.82
2018-05-27T09:48:59.321Z,64.66
2018-05-27T09:51:26.777Z,64.37
2018-05-27T09:54:01.562Z,65.49
2018-05-27T09:56:30.925Z,66.94
2018-05-27T09:58:58.352Z,66.77
2018-05-27T10:01:25.795Z,66.76
2018-05-27T10:03:53.213Z,66.27
2018-05-27T10:06:20.658Z,65.72
2018-05-27T10:08:49.002Z,68.37
2018-05-27T10:11:18.436Z,68.08
2018-05-27T10:13:45.862Z,69.23
2018-05-27T10:16:16.531Z,68.76
2018-05-27T10:18:43.948Z,69.72
2018-05-27T10:21:11.366Z,70.03
2018-05-27T10:23:38.809Z,70.75
2018-05-27T10:26:06.371Z,70.45
2018-05-27T10:28:33.685Z,70.41
2018-05-27T10:31:01.101Z,70.10
2018-05-27T10:36:19.839Z,71.80
2018-05-27T10:38:47.294Z,71.53
2018-05-27T10:41:14.719Z,71.72
2018-05-27T10:43:42.173Z,72.34
2018-05-27T10:46:09.605Z,72.33
2018-05-27T10:48:37.053Z,71.28
2018-05-27T10:51:04.490Z,71.80
2018-05-27T10:53:31.934Z,72.05
2018-05-27T10:55:59.358Z,71.45
2018-05-27T10:58:26.826Z,70.99
2018-05-27T11:00:54.237Z,70.17
2018-05-27T11:03:21.678Z,69.74
2018-05-27T11:05:50.166Z,70.24
2018-05-27T11:08:17.570Z,70.06
2018-05-27T11:10:45.030Z,69.67
2018-05-27T11:13:12.445Z,68.19
2018-05-27T11:15:39.893Z,69.62
2018-05-27T11:18:07.319Z,68.44
2018-05-27T11:20:35.697Z,67.91
2018-05-27T11:23:05.086Z,69.06
2018-05-27T11:25:32.538Z,68.01
2018-05-27T11:27:59.953Z,67.66
2018-05-27T11:30:28.321Z,69.58
2018-05-27T11:32:56.752Z,70.48
2018-05-27T11:35:24.205Z,71.05
2018-05-27T11:37:51.630Z,69.64
2018-05-27T11:40:21.079Z,70.34
2018-05-27T11:42:48.507Z,70.60
2018-05-27T11:45:15.920Z,71.54
2018-05-27T11:47:43.377Z,72.41
2018-05-27T12:36:03.646Z,53.03
2018-05-27T12:38:31.098Z,52.96
2018-05-27T12:40:58.523Z,52.70
2018-05-27T12:43:25.975Z,51.44
2018-05-27T12:45:54.361Z,51.35
2018-05-27T12:48:21.834Z,50.00
2018-05-27T12:50:50.165Z,51.90
2018-05-27T12:53:17.611Z,51.44
2018-05-27T12:55:46.025Z,50.00
2018-05-27T12:58:14.433Z,49.89
2018-05-27T13:00:41.860Z,53.00
2018-05-27T13:03:09.316Z,53.56
2018-05-27T13:05:36.760Z,55.05
2018-05-27T13:08:04.181Z,56.11
2018-05-27T13:10:31.638Z,55.09
2018-05-27T13:12:59.059Z,56.75
2018-05-27T13:15:26.515Z,57.12
2018-05-27T13:17:54.881Z,57.73
2018-05-27T13:20:23.285Z,58.28
2018-05-27T13:22:50.720Z,58.51
2018-05-27T13:25:18.169Z,57.18
2018-05-27T13:27:45.606Z,59.23
2018-05-27T13:30:13.062Z,58.68
2018-05-27T13:32:40.518Z,58.87
2018-05-27T13:35:08.025Z,57.69
2018-05-27T13:37:35.459Z,57.42
2018-05-27T13:40:03.890Z,57.53
2018-05-27T13:42:31.317Z,56.84
2018-05-27T13:44:58.777Z,57.26
2018-05-27T13:47:26.202Z,58.65
2018-05-27T13:49:53.667Z,54.02
2018-05-27T13:52:21.117Z,51.65
2018-05-27T13:54:48.546Z,50.58
2018-05-27T13:57:16.001Z,50.18
2018-05-27T13:59:43.419Z,50.05
2018-05-27T14:02:10.866Z,47.37
2018-05-27T14:04:38.297Z,49.45
2018-05-27T14:07:05.754Z,46.18
2018-05-27T14:09:33.181Z,45.32
2018-05-27T14:12:00.638Z,41.93
2018-05-27T14:14:28.061Z,39.65
2018-05-27T14:16:55.517Z,38.02
2018-05-27T14:19:22.938Z,41.16
2018-05-27T14:21:51.346Z,44.08
2018-05-27T14:24:18.818Z,44.38
2018-05-27T14:26:46.239Z,43.84
2018-05-27T14:29:13.657Z,43.75
2018-05-27T14:31:41.071Z,37.77
2018-05-27T14:34:08.535Z,39.63
2018-05-27T14:36:35.957Z,47.38
2018-05-27T14:39:03.414Z,49.43
2018-05-27T14:41:30.840Z,51.04
2018-05-27T14:43:58.294Z,52.48
2018-05-27T14:46:25.718Z,54.33
2018-05-27T14:48:53.165Z,56.69
2018-05-27T14:51:22.537Z,57.32
2018-05-27T14:53:49.995Z,57.55
2018-05-27T14:56:17.426Z,58.66
2018-05-27T14:58:44.882Z,56.04
2018-05-27T15:01:12.310Z,57.24
2018-05-27T15:03:39.758Z,55.03
2018-05-27T15:06:07.194Z,53.27
2018-05-27T15:08:34.657Z,56.39
2018-05-27T15:11:02.102Z,55.50
2018-05-27T15:13:29.548Z,58.68
2018-05-27T15:15:57.006Z,59.23
2018-05-27T15:18:24.460Z,59.66
2018-05-27T15:20:51.906Z,61.62
2018-05-27T15:23:19.334Z,61.27
2018-05-27T15:25:47.769Z,63.96
2018-05-27T15:28:15.189Z,62.82
2018-05-27T15:30:42.658Z,63.25
2018-05-27T15:33:11.042Z,62.99
2018-05-27T15:35:39.454Z,64.20
2018-05-27T15:38:07.810Z,65.63
2018-05-27T15:40:35.269Z,66.44
2018-05-27T15:43:03.621Z,66.23
2018-05-27T15:45:31.077Z,65.75
2018-05-27T15:47:58.501Z,66.07
2018-05-27T15:50:25.961Z,66.24
2018-05-27T15:52:53.393Z,67.14
2018-05-27T15:55:20.849Z,66.22
2018-05-27T15:57:48.283Z,65.74
2018-05-27T16:00:15.729Z,66.32
2018-05-27T16:02:43.149Z,67.73
2018-05-27T16:05:10.578Z,66.71
2018-05-27T16:07:38.965Z,66.38
2018-05-27T16:10:06.414Z,66.80
2018-05-27T16:12:33.874Z,66.53
2018-05-27T16:15:01.297Z,64.95
2018-05-27T16:17:28.750Z,63.74
2018-05-27T16:19:58.071Z,63.41
2018-05-27T16:22:25.526Z,64.42
2018-05-27T16:24:53.886Z,64.25
2018-05-27T16:27:21.342Z,64.56
2018-05-27T16:29:48.768Z,63.79
2018-05-27T16:32:16.229Z,65.76
2018-05-27T16:34:43.669Z,65.19
2018-05-27T16:37:12.134Z,64.03
2018-05-27T16:39:39.552Z,63.34
2018-05-27T16:42:06.978Z,64.44
2018-05-27T16:44:34.429Z,64.10
2018-05-27T16:47:06.937Z,64.57
2018-05-27T16:49:34.378Z,65.31
2018-05-27T16:52:01.805Z,65.14
2018-05-27T16:54:29.250Z,65.97
2018-05-27T16:56:56.665Z,66.64
2018-05-27T16:59:24.121Z,66.49
2018-05-27T17:01:52.481Z,66.96
2018-05-27T17:04:20.903Z,67.12
2018-05-27T17:06:51.486Z,63.45
2018-05-27T17:09:18.960Z,64.28
2018-05-27T17:11:47.346Z,63.96
2018-05-27T17:14:15.766Z,63.80
2018-05-27T17:16:44.081Z,64.81
2018-05-27T17:19:12.511Z,64.83
2018-05-27T17:21:39.929Z,65.34
2018-05-27T17:24:07.387Z,65.24
2018-05-27T17:26:34.820Z,66.18
2018-05-27T17:29:02.313Z,68.07
2018-05-27T17:31:29.778Z,68.60
2018-05-27T17:33:57.221Z,68.87
2018-05-27T17:36:24.670Z,68.06
2018-05-27T17:38:52.107Z,68.02
2018-05-27T17:41:20.530Z,67.62
2018-05-27T17:43:49.911Z,68.50
2018-05-27T17:46:17.371Z,68.38
2018-05-27T17:48:44.822Z,69.64
2018-05-27T17:51:13.229Z,71.51
2018-05-27T17:53:40.655Z,71.79
2018-05-27T17:56:08.121Z,73.46
2018-05-27T17:58:35.550Z,73.42
2018-05-27T18:01:03.014Z,74.99
2018-05-27T18:03:32.438Z,75.64
2018-05-27T18:05:59.889Z,76.07
2018-05-27T18:08:27.329Z,75.76
2018-05-27T18:10:55.695Z,75.55
2018-05-27T18:13:23.123Z,75.76
2018-05-27T18:15:50.831Z,75.16
2018-05-27T18:18:22.794Z,74.67
2018-05-27T18:20:51.217Z,74.65
2018-05-27T18:23:20.587Z,75.92
2018-05-27T18:25:48.014Z,76.80
2018-05-27T18:28:15.480Z,77.54
2018-05-27T18:30:42.917Z,77.77
2018-05-27T18:33:10.369Z,77.34
2018-05-27T18:35:37.798Z,76.90
2018-05-27T18:38:05.252Z,76.59
2018-05-27T18:40:32.682Z,77.17
2018-05-27T18:43:01.051Z,77.49
2018-05-27T18:45:28.487Z,78.08
2018-05-27T18:47:56.835Z,78.58
2018-05-27T18:50:24.250Z,79.04
2018-05-27T18:52:51.706Z,78.66
2018-05-27T18:55:22.821Z,78.52
2018-05-27T18:57:50.282Z,78.02
2018-05-27T19:00:17.721Z,78.07
2018-05-27T19:02:45.169Z,77.99
2018-05-27T19:05:12.591Z,78.08
2018-05-27T19:07:40.045Z,79.39
2018-05-27T19:10:07.466Z,78.87
2018-05-27T19:12:34.897Z,79.28
2018-05-27T19:15:02.374Z,79.19
2018-05-27T19:17:29.829Z,80.16
2018-05-27T19:22:55.285Z,81.28
2018-05-27T19:25:27.197Z,81.13
2018-05-27T19:27:54.634Z,81.15
2018-05-27T19:30:22.096Z,81.21
2018-05-27T19:32:49.523Z,81.96
2018-05-27T19:35:17.878Z,81.55
2018-05-27T19:37:46.966Z,82.17
2018-05-27T19:40:14.421Z,81.68
2018-05-27T19:42:41.852Z,82.14
2018-05-27T19:45:09.319Z,82.78
2018-05-27T19:47:36.741Z,82.81
2018-05-27T19:50:04.185Z,82.57
2018-05-27T19:52:31.611Z,83.38
2018-05-27T19:55:02.881Z,83.43
2018-05-27T19:57:31.311Z,83.32
2018-05-27T19:59:58.750Z,83.07
2018-05-27T20:02:26.173Z,82.82
2018-05-27T20:04:53.634Z,83.23
2018-05-27T20:07:21.061Z,82.91
2018-05-27T20:09:48.534Z,82.44
2018-05-27T20:12:15.955Z,83.39
2018-05-27T20:14:43.382Z,82.50
2018-05-27T20:17:10.881Z,83.18
2018-05-27T20:19:38.298Z,83.15
2018-05-27T20:22:06.770Z,82.72
2018-05-27T20:24:34.190Z,82.62
2018-05-27T20:27:01.672Z,82.44
2018-05-27T20:29:29.130Z,82.36
2018-05-27T20:31:56.574Z,82.37
2018-05-27T20:34:24.006Z,82.63
2018-05-27T20:36:51.453Z,82.60
2018-05-27T20:39:19.854Z,82.52
2018-05-27T20:41:47.309Z,82.54
2018-05-27T20:44:18.459Z,83.20
2018-05-27T20:46:45.910Z,82.98
2018-05-27T20:49:13.350Z,82.98
2018-05-27T20:51:40.809Z,82.92
2018-05-27T20:54:08.239Z,82.16
2018-05-27T20:56:36.743Z,81.95
2018-05-27T20:59:04.132Z,81.51
2018-05-27T21:01:31.558Z,81.87
2018-05-27T21:03:59.066Z,82.11
2018-05-27T21:06:26.457Z,81.86
2018-05-27T21:08:57.358Z,81.66
2018-05-27T21:11:26.690Z,82.09
2018-05-27T21:13:54.138Z,81.61
2018-05-27T21:16:21.586Z,81.72
2018-05-27T21:18:49.079Z,81.64
2018-05-27T21:21:16.506Z,81.43
2018-05-27T21:23:43.961Z,81.26
2018-05-27T21:26:11.399Z,82.69
2018-05-27T21:28:38.919Z,82.88
2018-05-27T21:31:06.343Z,82.67
2018-05-27T21:33:35.403Z,82.65
2018-05-27T21:36:07.649Z,83.19
2018-05-27T21:38:35.151Z,82.97
2018-05-27T21:41:02.587Z,83.69
2018-05-27T21:43:30.955Z,83.28
2018-05-27T21:45:58.406Z,83.50
2018-05-27T21:48:26.726Z,83.73
2018-05-27T21:50:55.177Z,83.01
2018-05-27T21:53:22.604Z,83.01
2018-05-27T21:55:50.054Z,82.60
2018-05-27T21:58:17.482Z,82.84
2018-05-27T22:00:44.929Z,82.79
2018-05-27T22:03:12.356Z,82.04
2018-05-27T22:05:39.814Z,81.94
2018-05-27T22:08:07.287Z,81.66
2018-05-27T22:10:34.709Z,82.82
2018-05-27T22:13:02.161Z,83.54
2018-05-27T22:15:29.613Z,82.90
2018-05-27T22:17:57.046Z,83.13
2018-05-27T22:20:24.471Z,83.62
2018-05-27T22:22:51.937Z,83.66
2018-05-27T22:25:19.365Z,83.21
2018-05-27T22:27:46.854Z,83.03
2018-05-27T22:30:14.243Z,83.53
2018-05-27T22:32:41.691Z,83.51
2018-05-27T22:35:09.124Z,83.66
2018-05-27T22:37:36.581Z,84.14
2018-05-27T22:40:04.005Z,83.84
2018-05-27T22:42:31.464Z,83.85
2018-05-27T22:44:58.892Z,83.87
2018-05-27T22:47:26.363Z,83.70
2018-05-27T22:49:53.795Z,84.89
2018-05-27T22:52:21.247Z,84.24
2018-05-27T22:54:48.697Z,84.04
2018-05-27T22:57:16.121Z,84.25
2018-05-27T22:59:43.578Z,83.84
2018-05-27T23:02:10.998Z,83.63
2018-05-27T23:04:38.459Z,83.63
2018-05-27T23:07:05.914Z,83.30
2018-05-27T23:09:33.369Z,83.72
2018-05-27T23:12:00.810Z,84.20
2018-05-27T23:14:28.273Z,83.69
2018-05-27T23:16:55.686Z,83.04
2018-05-27T23:19:23.159Z,82.69
2018-05-27T23:21:50.582Z,82.46
2018-05-27T23:24:18.937Z,83.18
2018-05-27T23:26:47.274Z,83.02
2018-05-27T23:29:14.729Z,82.80
2018-05-27T23:31:42.164Z,82.55
2018-05-27T23:34:09.589Z,82.27
2018-05-27T23:36:37.050Z,81.95
2018-05-27T23:39:04.488Z,81.98
2018-05-27T23:41:33.829Z,81.80
2018-05-27T23:44:01.260Z,81.96
2018-05-27T23:46:28.719Z,82.09
2018-05-27T23:48:56.134Z,81.45
2018-05-27T23:51:23.585Z,81.66
2018-05-27T23:53:51.014Z,81.99
2018-05-27T23:56:18.469Z,81.84
2018-05-27T23:58:45.901Z,82.26
